Time;durP1;ratioP1;P1;durP2;ratioP2;P2;SDS_P1;SDS_P2;PMS_P1;PMS_P2;Temp;Humidity;BMP_temperature;BMP_pressure;BME280_temperature;BME280_humidity;BME280_pressure;Samples;Min_cycle;Max_cycle;Signal;HPM_P1;HPM_P2
2022/07/14 00:00:44;;;;;;;;;;;22.10;96.60;;;;;;1996810;28;19920;-69
2022/07/14 00:01:43;;;;;;;;;;;21.90;96.00;;;;;;1998238;28;20308;-68
2022/07/14 00:02:41;;;;;;;;;;;21.90;95.80;;;;;;1998502;28;19917;-68
2022/07/14 00:03:40;;;;;;;;;;;22.00;96.60;;;;;;1998543;28;19906;-68
2022/07/14 00:04:38;;;;;;;;;;;21.90;96.00;;;;;;2005612;28;19968;-69
2022/07/14 00:05:37;;;;;;;;;;;21.90;96.00;;;;;;2005729;28;19905;-69
2022/07/14 00:06:35;;;;;;;;;;;21.90;96.70;;;;;;1998932;28;20018;-68
2022/07/14 00:07:34;;;;;;;;;;;21.90;96.10;;;;;;1998468;28;19906;-68
2022/07/14 00:08:32;;;;;;;;;;;21.90;96.40;;;;;;1998450;28;20487;-69
2022/07/14 00:09:31;;;;;;;;;;;21.90;94.50;;;;;;1998684;28;19905;-69
2022/07/14 00:10:30;;;;;;;;;;;21.80;95.70;;;;;;1998406;28;20284;-69
2022/07/14 00:11:28;;;;;;;;;;;21.90;96.60;;;;;;1998541;28;19910;-69
2022/07/14 00:12:27;;;;;;;;;;;21.90;96.60;;;;;;1998377;28;19906;-70
2022/07/14 00:13:26;;;;;;;;;;;21.80;96.70;;;;;;1998460;28;19949;-69
2022/07/14 00:14:24;;;;;;;;;;;21.80;96.70;;;;;;1998383;28;20326;-68
2022/07/14 00:15:23;;;;;;;;;;;21.90;96.60;;;;;;1998489;28;19913;-70
2022/07/14 00:16:21;;;;;;;;;;;21.80;96.40;;;;;;1998417;28;19913;-69
2022/07/14 00:17:20;;;;;;;;;;;21.80;96.00;;;;;;1998467;28;19905;-69
2022/07/14 00:18:18;;;;;;;;;;;21.90;96.40;;;;;;1997851;28;19905;-68
2022/07/14 00:19:17;;;;;;;;;;;21.90;96.90;;;;;;1997821;28;19964;-69
2022/07/14 00:20:16;;;;;;;;;;;21.80;97.40;;;;;;1998268;28;19906;-69
2022/07/14 00:21:15;;;;;;;;;;;21.80;94.30;;;;;;1998488;28;19905;-69
2022/07/14 00:22:14;;;;;;;;;;;21.80;94.80;;;;;;1998405;28;19905;-69
2022/07/14 00:23:12;;;;;;;;;;;21.90;94.90;;;;;;1998370;28;19948;-70
2022/07/14 00:24:11;;;;;;;;;;;21.90;95.10;;;;;;1998409;28;19935;-68
2022/07/14 00:25:10;;;;;;;;;;;21.80;94.70;;;;;;1998289;28;20036;-69
2022/07/14 00:26:10;;;;;;;;;;;21.90;95.10;;;;;;1998443;28;19912;-68
2022/07/14 00:27:09;;;;;;;;;;;21.90;95.30;;;;;;1997768;28;19996;-69
2022/07/14 00:28:07;;;;;;;;;;;21.70;95.60;;;;;;1997749;28;19906;-69
2022/07/14 00:29:07;;;;;;;;;;;21.80;96.10;;;;;;1998297;28;19906;-69
2022/07/14 00:30:05;;;;;;;;;;;21.80;96.20;;;;;;1998269;28;19905;-68
2022/07/14 00:31:08;;;;;;;;;;;21.90;96.30;;;;;;1998235;28;19921;-70
2022/07/14 00:32:07;;;;;;;;;;;21.90;95.70;;;;;;1998462;28;19909;-69
2022/07/14 00:33:05;;;;;;;;;;;21.80;95.10;;;;;;1998372;28;20330;-68
2022/07/14 00:34:04;;;;;;;;;;;21.80;95.50;;;;;;1998404;28;19996;-68
2022/07/14 00:35:03;;;;;;;;;;;21.90;96.70;;;;;;1998329;28;19949;-69
2022/07/14 00:36:02;;;;;;;;;;;21.80;96.00;;;;;;1998326;28;19913;-69
2022/07/14 00:37:00;;;;;;;;;;;21.80;96.40;;;;;;1997647;28;19906;-69
2022/07/14 00:37:59;;;;;;;;;;;21.70;96.50;;;;;;1997901;28;19906;-69
2022/07/14 00:38:58;;;;;;;;;;;21.80;95.70;;;;;;1998399;28;19905;-69
2022/07/14 00:39:56;;;;;;;;;;;21.80;95.40;;;;;;1998279;28;20353;-68
2022/07/14 00:40:55;;;;;;;;;;;21.80;95.90;;;;;;1998130;28;19907;-68
2022/07/14 00:41:53;;;;;;;;;;;21.90;96.40;;;;;;1998271;28;20016;-69
2022/07/14 00:42:52;;;;;;;;;;;21.70;96.40;;;;;;1997656;28;19953;-69
2022/07/14 00:43:50;;;;;;;;;;;21.80;96.40;;;;;;1997669;28;19908;-69
2022/07/14 00:44:49;;;;;;;;;;;21.80;96.80;;;;;;1998298;28;19906;-68
2022/07/14 00:45:48;;;;;;;;;;;21.80;95.60;;;;;;1998257;28;19906;-69
2022/07/14 00:46:46;;;;;;;;;;;21.70;96.50;;;;;;1998239;28;20363;-69
2022/07/14 00:47:46;;;;;;;;;;;21.30;96.20;;;;;;1998234;28;19992;-68
2022/07/14 00:48:45;;;;;;;;;;;21.70;95.90;;;;;;1998224;28;19906;-68
2022/07/14 00:49:44;;;;;;;;;;;21.80;95.30;;;;;;1998207;28;19992;-68
2022/07/14 00:50:43;;;;;;;;;;;21.90;96.60;;;;;;1998179;28;19969;-69
2022/07/14 00:51:41;;;;;;;;;;;21.90;96.50;;;;;;1998290;28;19910;-68
2022/07/14 00:52:44;;;;;;;;;;;21.80;92.60;;;;;;1998091;28;20269;-68
2022/07/14 00:53:43;;;;;;;;;;;21.80;94.70;;;;;;1998187;28;19906;-68
2022/07/14 00:54:41;;;;;;;;;;;21.80;94.50;;;;;;1998169;28;19910;-68
2022/07/14 00:55:41;;;;;;;;;;;21.80;92.10;;;;;;1998195;28;19999;-68
2022/07/14 00:56:40;;;;;;;;;;;21.80;96.00;;;;;;1998126;28;19912;-68
2022/07/14 00:57:38;;;;;;;;;;;21.70;94.10;;;;;;1998071;28;19913;-69
2022/07/14 00:58:37;;;;;;;;;;;21.70;95.20;;;;;;1998153;28;19912;-68
2022/07/14 00:59:35;;;;;;;;;;;21.80;95.20;;;;;;1998165;28;20013;-69
2022/07/14 01:00:34;;;;;;;;;;;21.80;95.40;;;;;;1997888;28;19968;-68
2022/07/14 01:01:32;;;;;;;;;;;21.70;96.20;;;;;;1998259;28;19912;-69
2022/07/14 01:02:31;;;;;;;;;;;21.70;95.20;;;;;;1998157;28;19941;-69
2022/07/14 01:03:30;;;;;;;;;;;21.70;96.80;;;;;;1997984;28;19952;-68
2022/07/14 01:04:28;;;;;;;;;;;21.80;97.00;;;;;;1998141;28;19996;-69
2022/07/14 01:05:27;;;;;;;;;;;21.70;93.70;;;;;;1998078;28;19929;-69
2022/07/14 01:06:25;;;;;;;;;;;21.80;95.20;;;;;;1998363;28;19917;-69
2022/07/14 01:07:24;;;;;;;;;;;21.70;96.30;;;;;;1997960;28;19906;-69
2022/07/14 01:08:22;;;;;;;;;;;21.70;96.20;;;;;;1998148;28;20313;-69
2022/07/14 01:09:20;;;;;;;;;;;21.70;96.60;;;;;;1998101;28;20312;-69
2022/07/14 01:10:19;;;;;;;;;;;21.70;96.30;;;;;;1997965;28;20217;-69
2022/07/14 01:11:18;;;;;;;;;;;21.70;96.40;;;;;;1997446;28;20335;-67
2022/07/14 01:12:16;;;;;;;;;;;21.80;96.50;;;;;;1989492;28;19969;-68
2022/07/14 01:13:15;;;;;;;;;;;21.70;97.20;;;;;;1996099;28;19914;-69
2022/07/14 01:14:13;;;;;;;;;;;21.70;97.40;;;;;;1997987;28;19941;-68
2022/07/14 01:15:12;;;;;;;;;;;21.80;97.10;;;;;;1998032;28;20430;-69
2022/07/14 01:16:11;;;;;;;;;;;21.70;96.90;;;;;;1998078;28;19909;-69
2022/07/14 01:17:09;;;;;;;;;;;21.70;97.40;;;;;;1998165;28;19914;-69
2022/07/14 01:18:08;;;;;;;;;;;21.60;96.80;;;;;;1998222;28;19912;-70
2022/07/14 01:19:06;;;;;;;;;;;21.70;94.60;;;;;;1997993;28;20000;-69
2022/07/14 01:20:05;;;;;;;;;;;21.70;95.20;;;;;;1998216;28;19996;-68
2022/07/14 01:21:07;;;;;;;;;;;21.70;95.00;;;;;;1997807;28;20341;-68
2022/07/14 01:22:06;;;;;;;;;;;21.70;95.20;;;;;;1997984;28;20074;-69
2022/07/14 01:23:05;;;;;;;;;;;21.70;95.30;;;;;;1998122;28;20265;-68
2022/07/14 01:24:03;;;;;;;;;;;21.80;95.80;;;;;;1997985;28;19968;-68
2022/07/14 01:25:06;;;;;;;;;;;21.70;96.20;;;;;;1998129;28;19917;-68
2022/07/14 01:26:05;;;;;;;;;;;21.80;96.80;;;;;;1998161;28;19906;-69
2022/07/14 01:27:03;;;;;;;;;;;21.70;96.70;;;;;;1997956;28;20009;-69
2022/07/14 01:28:02;;;;;;;;;;;21.70;96.90;;;;;;1997980;28;20004;-69
2022/07/14 01:29:00;;;;;;;;;;;21.60;94.70;;;;;;1998078;28;19965;-69
2022/07/14 01:29:59;;;;;;;;;;;21.70;95.00;;;;;;1997940;28;19905;-69
2022/07/14 01:30:57;;;;;;;;;;;21.60;96.00;;;;;;1997911;28;19965;-69
2022/07/14 01:31:56;;;;;;;;;;;21.70;97.00;;;;;;1997992;28;19980;-69
2022/07/14 01:34:30;;;;;;;;;;;21.70;96.70;;;;;;1998008;28;19906;-68
2022/07/14 01:35:29;;;;;;;;;;;;;;;;;;1997862;28;19906;-69
2022/07/14 01:36:28;;;;;;;;;;;21.60;97.30;;;;;;1997855;28;20008;-68
2022/07/14 01:37:27;;;;;;;;;;;21.90;96.30;;;;;;1998601;28;20336;-67
2022/07/14 01:38:26;;;;;;;;;;;21.60;92.40;;;;;;1998610;28;19906;-68
2022/07/14 01:39:24;;;;;;;;;;;21.60;92.70;;;;;;1998561;28;19953;-68
2022/07/14 01:40:23;;;;;;;;;;;21.70;93.20;;;;;;1998504;28;19932;-67
2022/07/14 01:41:21;;;;;;;;;;;21.60;94.00;;;;;;1997809;28;20301;-68
2022/07/14 01:42:20;;;;;;;;;;;21.70;94.80;;;;;;1997905;28;19956;-68
2022/07/14 01:43:18;;;;;;;;;;;21.70;94.90;;;;;;1997889;28;19913;-69
2022/07/14 01:44:17;;;;;;;;;;;21.60;95.30;;;;;;1997833;28;19913;-69
2022/07/14 01:45:16;;;;;;;;;;;21.70;95.90;;;;;;1997792;28;19913;-69
2022/07/14 01:46:15;;;;;;;;;;;21.80;96.10;;;;;;1997926;28;19913;-68
2022/07/14 01:47:14;;;;;;;;;;;21.60;96.20;;;;;;1997798;28;19917;-69
2022/07/14 01:48:12;;;;;;;;;;;21.60;96.50;;;;;;1997710;28;20008;-69
2022/07/14 01:49:10;;;;;;;;;;;21.70;97.10;;;;;;1997762;28;19905;-68
2022/07/14 01:50:09;;;;;;;;;;;21.60;97.40;;;;;;1997937;28;19906;-68
2022/07/14 01:51:08;;;;;;;;;;;21.70;97.70;;;;;;1997623;28;20353;-69
2022/07/14 01:52:07;;;;;;;;;;;21.70;98.40;;;;;;1997806;28;19910;-68
2022/07/14 01:53:05;;;;;;;;;;;21.60;95.00;;;;;;1997578;28;20324;-68
2022/07/14 01:54:07;;;;;;;;;;;21.60;95.60;;;;;;1997689;28;20380;-68
2022/07/14 01:55:06;;;;;;;;;;;21.60;97.40;;;;;;1997713;28;19906;-68
2022/07/14 01:56:04;;;;;;;;;;;21.60;98.00;;;;;;1997707;28;20375;-68
2022/07/14 01:57:03;;;;;;;;;;;21.70;95.10;;;;;;1997664;28;20005;-69
2022/07/14 01:58:01;;;;;;;;;;;21.60;95.20;;;;;;1997674;28;19931;-69
2022/07/14 01:59:00;;;;;;;;;;;21.60;95.10;;;;;;1997685;28;20313;-69
2022/07/14 01:59:58;;;;;;;;;;;21.70;95.60;;;;;;1997794;28;19937;-70
2022/07/14 02:02:14;;;;;;;;;;;21.70;95.60;;;;;;1997715;28;19906;-69
2022/07/14 02:03:13;;;;;;;;;;;21.70;96.10;;;;;;1997747;28;19997;-69
2022/07/14 02:04:15;;;;;;;;;;;21.60;96.40;;;;;;1997609;28;19910;-69
2022/07/14 02:05:13;;;;;;;;;;;21.60;96.60;;;;;;1997584;28;20012;-69
2022/07/14 02:06:12;;;;;;;;;;;21.60;96.70;;;;;;1997654;28;19960;-69
2022/07/14 02:07:11;;;;;;;;;;;21.60;97.40;;;;;;1997601;28;19962;-69
2022/07/14 02:08:09;;;;;;;;;;;21.60;97.90;;;;;;1989114;28;19906;-69
2022/07/14 02:09:09;;;;;;;;;;;;;;;;;;1989222;28;19912;-69
2022/07/14 02:12:10;;;;;;;;;;;21.50;96.60;;;;;;1997106;28;20019;-69
2022/07/14 02:12:52;;;;;;;;;;;21.60;94.10;;;;;;1997549;28;20011;-69
2022/07/14 02:13:51;;;;;;;;;;;21.60;95.60;;;;;;1997795;28;19905;-69
2022/07/14 02:14:49;;;;;;;;;;;21.70;95.80;;;;;;1997621;28;20290;-69
2022/07/14 02:15:47;;;;;;;;;;;21.70;96.00;;;;;;1997549;28;19912;-69
2022/07/14 02:16:46;;;;;;;;;;;21.60;94.80;;;;;;1997504;28;20393;-69
2022/07/14 02:17:45;;;;;;;;;;;21.60;96.00;;;;;;1997639;28;20001;-69
2022/07/14 02:18:43;;;;;;;;;;;21.60;96.70;;;;;;1997591;28;19996;-69
2022/07/14 02:19:42;;;;;;;;;;;21.60;95.50;;;;;;1997576;28;19916;-69
2022/07/14 02:20:40;;;;;;;;;;;21.60;96.60;;;;;;1997450;28;19916;-70
2022/07/14 02:21:39;;;;;;;;;;;21.60;96.90;;;;;;1997505;28;20353;-70
2022/07/14 02:22:38;;;;;;;;;;;21.60;95.60;;;;;;1997492;28;19913;-69
2022/07/14 02:23:36;;;;;;;;;;;21.50;95.30;;;;;;1997523;28;19905;-69
2022/07/14 02:24:35;;;;;;;;;;;21.60;96.20;;;;;;1997317;28;19905;-69
2022/07/14 02:25:33;;;;;;;;;;;21.60;96.30;;;;;;1997418;28;19906;-69
2022/07/14 02:26:32;;;;;;;;;;;21.60;96.90;;;;;;1997426;28;19992;-69
2022/07/14 02:27:30;;;;;;;;;;;21.50;97.80;;;;;;1997463;28;19929;-69
2022/07/14 02:28:29;;;;;;;;;;;21.60;96.80;;;;;;1997305;28;19952;-69
2022/07/14 02:29:27;;;;;;;;;;;21.60;97.30;;;;;;1997443;28;19906;-69
2022/07/14 02:30:26;;;;;;;;;;;21.60;97.70;;;;;;1997477;28;20068;-69
2022/07/14 02:31:24;;;;;;;;;;;21.70;98.40;;;;;;1997434;28;19956;-70
2022/07/14 02:32:24;;;;;;;;;;;21.50;97.50;;;;;;1996930;28;19945;-69
2022/07/14 02:33:22;;;;;;;;;;;21.50;95.90;;;;;;1996753;28;19913;-69
2022/07/14 02:34:21;;;;;;;;;;;21.60;97.10;;;;;;1997558;28;19913;-69
2022/07/14 02:35:19;;;;;;;;;;;21.60;97.90;;;;;;1997504;28;19956;-69
2022/07/14 02:36:18;;;;;;;;;;;21.60;97.00;;;;;;1997571;28;19905;-69
2022/07/14 02:37:16;;;;;;;;;;;21.50;95.60;;;;;;1997350;28;19937;-68
2022/07/14 02:38:15;;;;;;;;;;;21.50;95.80;;;;;;1997401;28;19912;-68
2022/07/14 02:39:14;;;;;;;;;;;21.50;93.00;;;;;;1997401;28;19963;-68
2022/07/14 02:40:12;;;;;;;;;;;21.60;94.40;;;;;;1997424;28;20012;-69
2022/07/14 02:41:11;;;;;;;;;;;21.60;93.80;;;;;;1997339;28;19906;-68
2022/07/14 02:42:09;;;;;;;;;;;21.50;91.70;;;;;;1997432;28;19906;-68
2022/07/14 02:43:08;;;;;;;;;;;21.50;92.00;;;;;;1997360;28;19910;-69
2022/07/14 02:44:06;;;;;;;;;;;21.50;92.20;;;;;;1997504;28;19912;-68
2022/07/14 02:45:05;;;;;;;;;;;21.50;92.60;;;;;;1996743;28;19996;-69
2022/07/14 02:46:04;;;;;;;;;;;21.60;93.30;;;;;;1996821;28;19948;-69
2022/07/14 02:47:02;;;;;;;;;;;21.50;95.50;;;;;;1997301;28;19933;-69
2022/07/14 02:48:00;;;;;;;;;;;21.60;93.80;;;;;;1997440;28;20000;-69
2022/07/14 02:48:59;;;;;;;;;;;21.50;91.40;;;;;;1997372;28;19906;-68
2022/07/14 02:49:57;;;;;;;;;;;21.60;91.50;;;;;;1997203;28;19905;-69
2022/07/14 02:51:00;;;;;;;;;;;21.60;91.70;;;;;;1997228;28;19906;-68
2022/07/14 02:51:58;;;;;;;;;;;21.50;91.80;;;;;;1997235;28;19913;-69
2022/07/14 02:52:57;;;;;;;;;;;21.50;92.00;;;;;;1997176;28;19916;-69
2022/07/14 02:53:55;;;;;;;;;;;21.50;92.20;;;;;;1997325;28;19906;-69
2022/07/14 02:54:53;;;;;;;;;;;21.50;92.50;;;;;;1997193;28;19983;-68
2022/07/14 02:55:52;;;;;;;;;;;21.60;93.30;;;;;;1997257;28;19910;-68
2022/07/14 02:56:50;;;;;;;;;;;21.40;97.00;;;;;;1997341;28;19933;-69
2022/07/14 02:57:49;;;;;;;;;;;21.50;96.10;;;;;;1997258;28;19956;-68
2022/07/14 02:58:47;;;;;;;;;;;21.50;97.70;;;;;;1997329;28;20014;-68
2022/07/14 02:59:46;;;;;;;;;;;21.60;92.70;;;;;;1997372;28;19953;-69
2022/07/14 03:00:44;;;;;;;;;;;21.50;93.50;;;;;;1996973;28;20312;-68
2022/07/14 03:01:43;;;;;;;;;;;21.50;96.30;;;;;;1997362;28;19906;-68
2022/07/14 03:02:41;;;;;;;;;;;21.50;96.60;;;;;;1997278;28;20065;-69
2022/07/14 03:03:40;;;;;;;;;;;21.50;96.00;;;;;;1996427;28;19912;-68
2022/07/14 03:04:38;;;;;;;;;;;21.50;96.00;;;;;;1996706;28;20345;-68
2022/07/14 03:05:36;;;;;;;;;;;21.50;97.00;;;;;;1997128;28;20269;-68
2022/07/14 03:06:35;;;;;;;;;;;21.60;95.20;;;;;;1997202;28;19956;-68
2022/07/14 03:07:33;;;;;;;;;;;21.60;95.10;;;;;;1997177;28;19949;-68
2022/07/14 03:08:32;;;;;;;;;;;21.50;95.20;;;;;;1997148;28;19916;-68
2022/07/14 03:09:30;;;;;;;;;;;21.50;95.40;;;;;;1997285;28;19906;-68
2022/07/14 03:10:29;;;;;;;;;;;21.50;95.60;;;;;;1997184;28;19906;-69
2022/07/14 03:11:27;;;;;;;;;;;21.50;95.90;;;;;;1997161;28;19913;-69
2022/07/14 03:12:26;;;;;;;;;;;21.50;96.00;;;;;;1997178;28;19963;-69
2022/07/14 03:13:24;;;;;;;;;;;21.60;96.60;;;;;;1997101;28;20021;-69
2022/07/14 03:14:23;;;;;;;;;;;21.60;97.30;;;;;;1997144;28;20078;-68
2022/07/14 03:15:22;;;;;;;;;;;21.50;96.50;;;;;;1997070;28;19921;-69
2022/07/14 03:16:20;;;;;;;;;;;21.50;94.60;;;;;;1997188;28;19995;-69
2022/07/14 03:17:19;;;;;;;;;;;21.50;94.90;;;;;;1997219;28;19948;-69
2022/07/14 03:18:17;;;;;;;;;;;21.50;94.90;;;;;;1997101;28;19964;-69
2022/07/14 03:19:16;;;;;;;;;;;21.50;95.00;;;;;;1997131;28;19905;-68
2022/07/14 03:20:14;;;;;;;;;;;21.50;95.00;;;;;;1997225;28;19913;-69
2022/07/14 03:21:13;;;;;;;;;;;21.50;95.30;;;;;;1997210;28;19910;-69
2022/07/14 03:22:11;;;;;;;;;;;21.50;95.70;;;;;;1997232;28;19932;-69
2022/07/14 03:23:10;;;;;;;;;;;21.50;95.70;;;;;;1997128;28;19928;-69
2022/07/14 03:24:08;;;;;;;;;;;21.50;96.00;;;;;;1997035;28;19906;-68
2022/07/14 03:25:07;;;;;;;;;;;21.60;97.20;;;;;;1997092;28;19905;-68
2022/07/14 03:26:05;;;;;;;;;;;21.50;97.50;;;;;;1997118;28;20289;-68
2022/07/14 03:27:04;;;;;;;;;;;21.60;97.00;;;;;;1996990;28;20355;-68
2022/07/14 03:28:03;;;;;;;;;;;21.50;97.40;;;;;;1997093;28;19912;-68
2022/07/14 03:29:01;;;;;;;;;;;21.50;97.00;;;;;;1997021;28;19912;-69
2022/07/14 03:30:01;;;;;;;;;;;21.50;97.00;;;;;;1997198;28;19910;-68
2022/07/14 03:31:00;;;;;;;;;;;21.60;93.90;;;;;;1996994;28;19905;-69
2022/07/14 03:31:58;;;;;;;;;;;21.50;93.10;;;;;;1997112;28;19912;-68
2022/07/14 03:32:57;;;;;;;;;;;21.60;92.80;;;;;;1996977;28;19913;-69
2022/07/14 03:33:55;;;;;;;;;;;21.50;93.60;;;;;;1997029;28;19912;-69
2022/07/14 03:34:54;;;;;;;;;;;21.50;92.90;;;;;;1997162;28;19905;-68
2022/07/14 03:35:52;;;;;;;;;;;21.50;92.80;;;;;;1996665;28;19917;-68
2022/07/14 03:36:51;;;;;;;;;;;21.50;93.30;;;;;;1997119;28;20348;-68
2022/07/14 03:37:49;;;;;;;;;;;21.50;93.10;;;;;;1997142;28;19956;-69
2022/07/14 03:38:47;;;;;;;;;;;21.60;94.30;;;;;;1997036;28;19906;-69
2022/07/14 03:39:46;;;;;;;;;;;21.50;93.40;;;;;;1997078;28;19912;-68
2022/07/14 03:40:44;;;;;;;;;;;21.50;93.80;;;;;;1996941;28;19906;-68
2022/07/14 03:41:43;;;;;;;;;;;21.50;93.70;;;;;;1996896;28;19906;-68
2022/07/14 03:42:44;;;;;;;;;;;21.50;93.60;;;;;;1997025;28;20284;-68
2022/07/14 03:43:43;;;;;;;;;;;21.40;93.50;;;;;;1997025;28;20419;-69
2022/07/14 03:44:43;;;;;;;;;;;21.50;94.10;;;;;;1997023;28;19941;-69
2022/07/14 03:45:42;;;;;;;;;;;21.40;94.50;;;;;;1997032;28;19940;-68
2022/07/14 03:46:40;;;;;;;;;;;21.40;94.60;;;;;;1997120;28;20345;-69
2022/07/14 03:47:42;;;;;;;;;;;21.40;94.30;;;;;;1997144;28;20364;-69
2022/07/14 03:48:41;;;;;;;;;;;21.40;94.20;;;;;;1997124;28;19913;-68
2022/07/14 03:49:39;;;;;;;;;;;21.50;92.60;;;;;;1997018;28;19956;-69
2022/07/14 03:50:37;;;;;;;;;;;21.50;92.10;;;;;;1996915;28;19906;-69
2022/07/14 03:51:43;;;;;;;;;;;21.40;92.10;;;;;;1997047;28;19913;-69
2022/07/14 03:52:41;;;;;;;;;;;21.60;92.20;;;;;;1996874;28;19945;-69
2022/07/14 03:53:39;;;;;;;;;;;21.50;93.10;;;;;;1997065;28;19913;-68
2022/07/14 03:54:38;;;;;;;;;;;21.40;92.40;;;;;;1996976;28;19905;-68
2022/07/14 03:55:37;;;;;;;;;;;21.40;92.40;;;;;;1996994;28;19943;-68
2022/07/14 03:56:37;;;;;;;;;;;21.50;93.20;;;;;;1996890;28;19906;-68
2022/07/14 03:57:35;;;;;;;;;;;21.50;92.70;;;;;;1996396;28;20312;-68
2022/07/14 03:58:34;;;;;;;;;;;21.50;92.70;;;;;;1996479;28;19905;-68
2022/07/14 03:59:32;;;;;;;;;;;21.50;93.90;;;;;;1997010;28;19910;-68
2022/07/14 04:00:31;;;;;;;;;;;21.40;94.00;;;;;;1996752;28;19980;-69
2022/07/14 04:01:29;;;;;;;;;;;21.40;94.50;;;;;;1996773;28;20427;-68
2022/07/14 04:02:28;;;;;;;;;;;20.80;96.80;;;;;;1996981;28;19906;-68
2022/07/14 04:03:26;;;;;;;;;;;21.40;94.30;;;;;;1996974;28;19913;-68
2022/07/14 04:04:25;;;;;;;;;;;21.40;96.10;;;;;;1996884;28;19906;-68
2022/07/14 04:05:23;;;;;;;;;;;21.50;95.70;;;;;;1996865;28;20053;-70
2022/07/14 04:06:22;;;;;;;;;;;21.50;95.80;;;;;;1996915;28;20004;-68
2022/07/14 04:07:20;;;;;;;;;;;21.40;95.60;;;;;;1996900;28;19905;-69
2022/07/14 04:08:18;;;;;;;;;;;21.70;94.80;;;;;;1996950;28;19928;-69
2022/07/14 04:09:17;;;;;;;;;;;21.50;93.60;;;;;;1996894;28;19906;-68
2022/07/14 04:10:15;;;;;;;;;;;21.40;93.80;;;;;;1996762;28;19910;-68
2022/07/14 04:11:14;;;;;;;;;;;21.40;93.90;;;;;;1996928;28;19913;-68
2022/07/14 04:12:14;;;;;;;;;;;21.50;93.10;;;;;;1996926;28;19984;-69
2022/07/14 04:13:13;;;;;;;;;;;21.50;93.40;;;;;;1996769;28;19913;-68
2022/07/14 04:14:12;;;;;;;;;;;21.50;93.60;;;;;;1996914;28;19909;-68
2022/07/14 04:15:11;;;;;;;;;;;21.50;94.90;;;;;;1996878;28;19916;-68
2022/07/14 04:16:09;;;;;;;;;;;21.40;94.40;;;;;;1996826;28;20325;-68
2022/07/14 04:17:08;;;;;;;;;;;21.40;95.70;;;;;;1996948;28;19906;-68
2022/07/14 04:18:06;;;;;;;;;;;21.60;96.90;;;;;;1996939;28;19929;-69
2022/07/14 04:19:06;;;;;;;;;;;21.50;94.80;;;;;;1997096;28;19928;-69
2022/07/14 04:20:06;;;;;;;;;;;21.50;95.10;;;;;;1996911;28;19905;-69
2022/07/14 04:21:06;;;;;;;;;;;21.50;95.50;;;;;;1996758;28;19910;-69
2022/07/14 04:22:05;;;;;;;;;;;21.40;97.40;;;;;;1996799;28;19906;-69
2022/07/14 04:23:04;;;;;;;;;;;21.50;96.60;;;;;;1996876;28;19906;-68
2022/07/14 04:24:03;;;;;;;;;;;21.40;96.80;;;;;;1996762;28;20429;-68
2022/07/14 04:25:02;;;;;;;;;;;21.40;95.00;;;;;;1997033;28;19912;-68
2022/07/14 04:26:02;;;;;;;;;;;21.50;92.80;;;;;;1996770;28;19905;-68
2022/07/14 04:27:00;;;;;;;;;;;21.40;92.60;;;;;;1996168;28;19910;-68
2022/07/14 04:27:59;;;;;;;;;;;21.40;91.40;;;;;;1996258;28;19964;-68
2022/07/14 04:28:58;;;;;;;;;;;21.40;91.90;;;;;;1996798;28;20045;-68
2022/07/14 04:29:56;;;;;;;;;;;21.40;91.60;;;;;;1996948;28;20089;-68
2022/07/14 04:30:55;;;;;;;;;;;21.50;91.70;;;;;;1996805;28;19906;-68
2022/07/14 04:31:54;;;;;;;;;;;21.40;91.60;;;;;;1996835;28;20309;-68
2022/07/14 04:32:53;;;;;;;;;;;21.40;92.70;;;;;;1996884;28;19937;-68
2022/07/14 04:33:51;;;;;;;;;;;21.50;92.00;;;;;;1996880;28;20316;-67
2022/07/14 04:34:50;;;;;;;;;;;21.40;92.20;;;;;;1996919;28;19957;-68
2022/07/14 04:35:48;;;;;;;;;;;21.40;92.40;;;;;;1996938;28;20329;-68
2022/07/14 04:36:47;;;;;;;;;;;21.40;92.90;;;;;;1996928;28;20237;-69
2022/07/14 04:37:45;;;;;;;;;;;21.50;92.50;;;;;;1997006;28;19913;-67
2022/07/14 04:38:44;;;;;;;;;;;21.40;92.10;;;;;;1996861;28;19912;-68
2022/07/14 04:39:43;;;;;;;;;;;21.40;92.20;;;;;;1997684;28;19906;-68
2022/07/14 04:40:48;;;;;;;;;;;21.50;92.40;;;;;;1997573;28;19906;-68
2022/07/14 04:41:46;;;;;;;;;;;21.40;92.60;;;;;;1997737;28;19912;-68
2022/07/14 04:42:45;;;;;;;;;;;21.40;92.60;;;;;;1997717;28;19905;-68
2022/07/14 04:43:43;;;;;;;;;;;21.50;92.20;;;;;;1996176;28;19919;-69
2022/07/14 04:44:42;;;;;;;;;;;21.40;92.10;;;;;;1996432;28;19909;-69
2022/07/14 04:45:41;;;;;;;;;;;21.40;92.30;;;;;;1996877;28;19914;-69
2022/07/14 04:46:39;;;;;;;;;;;21.40;93.10;;;;;;1996933;28;19905;-69
2022/07/14 04:47:38;;;;;;;;;;;21.40;92.30;;;;;;1996831;28;20063;-69
2022/07/14 04:52:27;;;;;;;;;;;21.40;93.30;;;;;;1998214;28;19918;-69
2022/07/14 04:53:26;;;;;;;;;;;21.40;93.90;;;;;;1998118;28;19909;-69
2022/07/14 04:54:24;;;;;;;;;;;21.40;98.30;;;;;;1998261;28;20198;-69
2022/07/14 04:55:23;;;;;;;;;;;21.50;95.90;;;;;;1998178;28;19906;-69
2022/07/14 04:56:23;;;;;;;;;;;;;;;;;;1998259;28;20242;-68
2022/07/14 04:57:21;;;;;;;;;;;21.40;96.70;;;;;;1998124;28;19905;-68
2022/07/14 04:58:20;;;;;;;;;;;21.50;94.50;;;;;;1998108;28;20347;-68
2022/07/14 04:59:18;;;;;;;;;;;21.50;95.10;;;;;;1998317;28;19956;-69
2022/07/14 05:00:17;;;;;;;;;;;21.40;92.40;;;;;;1997858;28;19906;-69
2022/07/14 05:01:17;;;;;;;;;;;21.50;90.30;;;;;;1998124;28;19934;-68
2022/07/14 05:02:15;;;;;;;;;;;21.40;90.30;;;;;;1998292;28;19913;-68
2022/07/14 05:03:14;;;;;;;;;;;21.50;90.40;;;;;;1998268;28;20332;-69
2022/07/14 05:04:12;;;;;;;;;;;21.40;90.50;;;;;;1998319;28;19920;-68
2022/07/14 05:05:11;;;;;;;;;;;21.40;90.70;;;;;;1998050;28;20325;-68
2022/07/14 05:06:11;;;;;;;;;;;21.40;90.70;;;;;;1998157;28;19953;-68
2022/07/14 05:07:09;;;;;;;;;;;21.50;90.90;;;;;;1998121;28;19906;-68
2022/07/14 05:08:07;;;;;;;;;;;21.50;91.10;;;;;;1998144;28;20387;-68
2022/07/14 05:09:06;;;;;;;;;;;21.40;91.20;;;;;;1998029;28;19906;-68
2022/07/14 05:10:05;;;;;;;;;;;21.40;91.50;;;;;;1998092;28;19906;-69
2022/07/14 05:11:04;;;;;;;;;;;21.40;91.50;;;;;;1997948;28;19905;-68
2022/07/14 05:12:02;;;;;;;;;;;21.40;91.50;;;;;;1998071;28;20352;-68
2022/07/14 05:13:01;;;;;;;;;;;21.40;91.50;;;;;;1998068;28;20353;-69
2022/07/14 05:13:59;;;;;;;;;;;21.50;91.30;;;;;;1998156;28;19909;-68
2022/07/14 05:14:58;;;;;;;;;;;21.40;91.40;;;;;;1997970;28;19905;-69
2022/07/14 05:15:56;;;;;;;;;;;21.50;91.40;;;;;;1998021;28;19965;-68
2022/07/14 05:16:55;;;;;;;;;;;21.40;91.60;;;;;;1998011;28;19913;-69
2022/07/14 05:17:54;;;;;;;;;;;21.40;92.00;;;;;;1998004;28;20341;-68
2022/07/14 05:18:52;;;;;;;;;;;21.40;92.00;;;;;;1997915;28;19952;-68
2022/07/14 05:19:51;;;;;;;;;;;21.40;92.10;;;;;;1997865;28;19913;-69
2022/07/14 05:20:50;;;;;;;;;;;21.40;92.00;;;;;;1997844;28;20013;-69
2022/07/14 05:21:48;;;;;;;;;;;21.40;92.20;;;;;;1997902;28;19906;-69
2022/07/14 05:22:46;;;;;;;;;;;21.40;92.30;;;;;;1997946;28;19906;-68
2022/07/14 05:23:45;;;;;;;;;;;21.50;92.50;;;;;;1997995;28;19912;-69
2022/07/14 05:24:44;;;;;;;;;;;21.40;92.50;;;;;;1998045;28;20012;-69
2022/07/14 05:25:43;;;;;;;;;;;21.40;92.50;;;;;;1998037;28;20395;-69
2022/07/14 05:26:41;;;;;;;;;;;21.40;92.80;;;;;;1997824;28;19905;-69
2022/07/14 05:27:40;;;;;;;;;;;21.40;93.10;;;;;;1998210;28;19913;-69
2022/07/14 05:28:39;;;;;;;;;;;21.40;93.30;;;;;;1997888;28;19953;-69
2022/07/14 05:29:38;;;;;;;;;;;21.40;93.30;;;;;;1997768;28;19991;-68
2022/07/14 05:30:36;;;;;;;;;;;21.40;93.40;;;;;;1997755;28;19905;-68
2022/07/14 05:31:35;;;;;;;;;;;21.50;93.60;;;;;;1997909;28;19913;-68
2022/07/14 05:32:35;;;;;;;;;;;21.40;93.50;;;;;;1997866;28;19992;-69
2022/07/14 05:33:34;;;;;;;;;;;21.40;93.90;;;;;;1997867;28;20352;-68
2022/07/14 05:34:32;;;;;;;;;;;21.40;93.80;;;;;;1997873;28;19906;-69
2022/07/14 05:35:30;;;;;;;;;;;21.40;93.90;;;;;;1997824;28;20291;-69
2022/07/14 05:36:29;;;;;;;;;;;21.40;94.00;;;;;;1997745;28;19906;-67
2022/07/14 05:37:27;;;;;;;;;;;21.40;94.30;;;;;;1997800;28;19905;-67
2022/07/14 05:38:26;;;;;;;;;;;21.40;94.50;;;;;;1997747;28;19905;-67
2022/07/14 05:39:25;;;;;;;;;;;21.40;94.70;;;;;;1997739;28;19913;-68
2022/07/14 05:40:23;;;;;;;;;;;21.40;95.30;;;;;;1997824;28;20222;-68
2022/07/14 05:41:21;;;;;;;;;;;21.40;95.40;;;;;;1997840;28;19933;-67
2022/07/14 05:42:21;;;;;;;;;;;21.40;95.70;;;;;;1997870;28;19906;-69
2022/07/14 05:43:19;;;;;;;;;;;21.40;95.70;;;;;;1997721;28;19912;-67
2022/07/14 05:44:18;;;;;;;;;;;21.40;95.90;;;;;;1997769;28;19906;-68
2022/07/14 05:45:16;;;;;;;;;;;21.40;96.10;;;;;;1997691;28;19906;-68
2022/07/14 05:46:15;;;;;;;;;;;21.40;96.20;;;;;;1997821;28;19941;-68
2022/07/14 05:47:14;;;;;;;;;;;21.40;96.60;;;;;;1997763;28;19976;-67
2022/07/14 05:48:12;;;;;;;;;;;21.40;97.10;;;;;;1997825;28;19993;-67
2022/07/14 05:49:11;;;;;;;;;;;21.40;97.70;;;;;;1997787;28;19973;-67
2022/07/14 05:50:09;;;;;;;;;;;21.50;98.80;;;;;;1997878;28;19952;-68
2022/07/14 05:51:10;;;;;;;;;;;21.30;96.80;;;;;;1997728;28;19906;-67